createdAt,value
2018-10-03T00:00:26.630Z,99661.23
2018-10-03T00:02:55.014Z,99665.55
2018-10-03T00:05:23.400Z,99644.52
2018-10-03T00:07:51.819Z,99676.58
2018-10-03T00:10:20.261Z,99674.03
2018-10-03T00:12:49.318Z,99676.82
2018-10-03T00:15:17.899Z,99671.50
2018-10-03T00:17:46.333Z,99679.25
2018-10-03T00:20:14.722Z,99679.23
2018-10-03T00:22:43.718Z,99685.36
2018-10-03T00:25:12.158Z,99684.55
2018-10-03T00:27:40.645Z,99684.45
2018-10-03T00:30:09.283Z,99687.23
2018-10-03T00:32:37.819Z,99684.40
2018-10-03T00:35:06.435Z,99686.34
2018-10-03T00:37:34.827Z,99681.69
2018-10-03T00:40:03.810Z,99683.47
2018-10-03T00:42:37.266Z,99687.91
2018-10-03T00:45:06.450Z,99690.17
2018-10-03T00:47:36.310Z,99696.75
2018-10-03T00:50:13.517Z,99683.70
2018-10-03T00:52:42.429Z,99693.11
2018-10-03T00:55:15.735Z,99698.03
2018-10-03T00:57:50.710Z,99702.42
2018-10-03T01:00:20.472Z,99699.59
2018-10-03T01:02:48.939Z,99691.95
2018-10-03T01:05:17.353Z,99687.25
2018-10-03T01:07:45.807Z,99679.94
2018-10-03T01:10:14.249Z,99681.53
2018-10-03T01:12:43.758Z,99674.08
2018-10-03T01:15:12.242Z,99675.86
2018-10-03T01:17:41.110Z,99668.67
2018-10-03T01:20:09.501Z,99671.17
2018-10-03T01:22:38.422Z,99668.88
2018-10-03T01:25:06.798Z,99672.14
2018-10-03T01:27:35.509Z,99659.73
2018-10-03T01:30:05.473Z,99675.02
2018-10-03T01:32:34.373Z,99676.66
2018-10-03T01:35:02.869Z,99667.02
2018-10-03T01:37:31.317Z,99666.69
2018-10-03T01:39:59.698Z,99677.52
2018-10-03T01:42:28.109Z,99679.48
2018-10-03T01:44:56.701Z,99677.82
2018-10-03T01:47:25.421Z,99676.91
2018-10-03T01:49:54.430Z,99678.83
2018-10-03T01:52:22.921Z,99673.55
2018-10-03T01:54:51.359Z,99679.88
2018-10-03T01:57:20.441Z,99679.94
2018-10-03T01:59:48.845Z,99673.28
2018-10-03T02:02:18.348Z,99679.16
2018-10-03T02:04:46.832Z,99665.91
2018-10-03T02:07:15.303Z,99682.39
2018-10-03T02:09:44.773Z,99680.38
2018-10-03T02:12:13.277Z,99677.14
2018-10-03T02:14:41.711Z,99673.83
2018-10-03T02:17:10.089Z,99668.92
2018-10-03T02:19:38.486Z,99669.56
2018-10-03T02:22:07.192Z,99671.77
2018-10-03T02:24:36.157Z,99677.17
2018-10-03T02:27:04.833Z,99683.30
2018-10-03T02:29:33.269Z,99685.16
2018-10-03T02:32:01.822Z,99675.19
2018-10-03T02:34:30.352Z,99675.47
2018-10-03T02:36:58.774Z,99670.67
2018-10-03T02:39:27.181Z,99669.54
2018-10-03T02:41:55.578Z,99668.77
2018-10-03T02:44:24.089Z,99663.92
2018-10-03T02:46:53.630Z,99662.43
2018-10-03T02:49:22.185Z,99658.16
2018-10-03T02:51:51.071Z,99658.28
2018-10-03T02:54:20.951Z,99658.28
2018-10-03T02:56:49.407Z,99670.19
2018-10-03T02:59:18.561Z,99668.94
2018-10-03T03:01:47.254Z,99667.25
2018-10-03T03:04:15.686Z,99664.60
2018-10-03T03:06:44.062Z,99669.33
2018-10-03T03:09:14.231Z,99665.07
2018-10-03T03:11:42.641Z,99673.55
2018-10-03T03:14:11.557Z,99676.39
2018-10-03T03:16:40.506Z,99673.91
2018-10-03T03:19:11.641Z,99677.27
2018-10-03T03:21:40.118Z,99676.30
2018-10-03T03:24:08.542Z,99626.13
2018-10-03T03:26:37.729Z,99687.44
2018-10-03T03:29:06.241Z,99690.68
2018-10-03T03:31:34.954Z,99696.52
2018-10-03T03:34:03.315Z,99703.40
2018-10-03T03:36:31.909Z,99687.48
2018-10-03T03:39:00.364Z,99689.63
2018-10-03T03:41:28.977Z,99684.60
2018-10-03T03:43:57.353Z,99693.41
2018-10-03T03:46:25.784Z,99686.16
2018-10-03T03:48:54.197Z,99689.52
2018-10-03T03:51:22.642Z,99693.96
2018-10-03T03:53:51.033Z,99695.05
2018-10-03T03:56:19.504Z,99696.80
2018-10-03T03:58:47.896Z,99697.27
2018-10-03T04:01:17.181Z,99692.94
2018-10-03T04:03:45.575Z,99695.59
2018-10-03T04:06:13.953Z,99702.35
2018-10-03T04:08:42.729Z,99700.27
2018-10-03T04:11:11.674Z,99695.19
2018-10-03T04:13:40.070Z,99697.15
2018-10-03T04:16:09.169Z,99704.34
2018-10-03T04:18:37.650Z,99703.25
2018-10-03T04:21:06.017Z,99705.61
2018-10-03T04:23:35.721Z,99705.27
2018-10-03T04:26:05.158Z,99716.53
2018-10-03T04:28:33.534Z,99716.78
2018-10-03T04:31:01.985Z,99717.36
2018-10-03T04:33:30.615Z,99714.47
2018-10-03T04:35:58.986Z,99719.20
2018-10-03T04:38:28.414Z,99723.31
2018-10-03T04:40:56.758Z,99729.95
2018-10-03T04:43:25.220Z,99729.79
2018-10-03T04:45:53.580Z,99730.67
2018-10-03T04:48:22.130Z,99734.06
2018-10-03T04:50:50.645Z,99726.45
2018-10-03T04:53:20.026Z,99726.00
2018-10-03T04:55:48.445Z,99731.33
2018-10-03T04:58:16.809Z,99731.91
2018-10-03T05:00:46.039Z,99738.78
2018-10-03T05:03:14.411Z,99729.34
2018-10-03T05:05:43.069Z,99731.98
2018-10-03T05:08:11.538Z,99737.30
2018-10-03T05:10:39.981Z,99747.23
2018-10-03T05:13:08.629Z,99758.95
2018-10-03T05:15:37.250Z,99755.23
2018-10-03T05:18:05.890Z,99754.63
2018-10-03T05:20:34.282Z,99758.39
2018-10-03T05:23:03.105Z,99750.00
2018-10-03T05:25:31.696Z,99749.56
2018-10-03T05:28:00.266Z,99752.95
2018-10-03T05:30:28.620Z,99753.30
2018-10-03T05:32:57.270Z,99752.58
2018-10-03T05:35:25.929Z,99767.80
2018-10-03T05:37:55.066Z,99763.48
2018-10-03T05:40:23.537Z,99744.33
2018-10-03T05:42:51.982Z,99776.75
2018-10-03T05:45:20.658Z,99771.63
2018-10-03T05:47:49.017Z,99756.72
2018-10-03T05:50:17.455Z,99786.73
2018-10-03T05:52:45.853Z,99785.68
2018-10-03T05:55:15.019Z,99791.58
2018-10-03T05:57:44.049Z,99790.70
2018-10-03T06:00:14.670Z,99790.31
2018-10-03T06:02:43.125Z,99804.02
2018-10-03T06:05:11.769Z,99807.48
2018-10-03T06:07:40.170Z,99815.88
2018-10-03T06:10:08.582Z,99819.56
2018-10-03T06:12:37.030Z,99808.66
2018-10-03T06:15:06.162Z,99806.88
2018-10-03T06:17:35.361Z,99816.68
2018-10-03T06:20:03.892Z,99816.91
2018-10-03T06:22:32.259Z,99824.03
2018-10-03T06:25:01.005Z,99826.13
2018-10-03T06:27:30.122Z,99829.47
2018-10-03T06:29:58.578Z,99830.64
2018-10-03T06:32:27.002Z,99830.23
2018-10-03T06:34:55.425Z,99830.92
2018-10-03T06:37:23.829Z,99837.78
2018-10-03T06:39:52.339Z,99845.49
2018-10-03T06:42:20.967Z,99848.48
2018-10-03T06:44:49.342Z,99856.85
2018-10-03T06:47:17.899Z,99855.36
2018-10-03T06:49:46.635Z,99859.36
2018-10-03T06:52:15.177Z,99863.96
2018-10-03T06:54:44.588Z,99866.34
2018-10-03T06:57:13.315Z,99867.36
2018-10-03T06:59:41.706Z,99868.31
2018-10-03T07:02:10.592Z,99880.31
2018-10-03T07:04:38.981Z,99883.92
2018-10-03T07:07:07.325Z,99877.80
2018-10-03T07:09:35.682Z,99882.30
2018-10-03T07:12:04.054Z,99869.39
2018-10-03T07:14:32.440Z,99891.63
2018-10-03T07:17:01.379Z,99879.48
2018-10-03T07:19:29.749Z,99888.86
2018-10-03T07:21:59.937Z,99898.61
2018-10-03T07:24:28.874Z,99884.39
2018-10-03T07:26:58.345Z,99887.55
2018-10-03T07:29:27.356Z,99887.67
2018-10-03T07:31:56.788Z,99896.81
2018-10-03T07:34:25.163Z,99881.30
2018-10-03T07:36:53.573Z,99907.02
2018-10-03T07:39:22.196Z,99909.77
2018-10-03T07:41:50.694Z,99911.48
2018-10-03T07:44:19.072Z,99914.71
2018-10-03T07:46:47.701Z,99922.13
2018-10-03T07:49:16.118Z,99927.61
2018-10-03T07:51:44.538Z,99923.89
2018-10-03T07:54:12.999Z,99920.97
2018-10-03T07:56:41.505Z,99929.36
2018-10-03T07:59:09.998Z,99928.55
2018-10-03T08:01:38.350Z,99936.42
2018-10-03T08:04:06.770Z,99940.73
2018-10-03T08:06:35.125Z,99948.97
2018-10-03T08:09:03.804Z,99951.54
2018-10-03T08:11:32.474Z,99948.20
2018-10-03T08:14:00.885Z,99951.73
2018-10-03T08:16:29.710Z,99950.44
2018-10-03T08:18:58.093Z,99953.70
2018-10-03T08:21:27.350Z,99947.08
2018-10-03T08:23:56.050Z,99950.27
2018-10-03T08:26:24.450Z,99946.97
2018-10-03T08:28:52.813Z,99950.89
2018-10-03T08:31:24.918Z,99921.48
2018-10-03T08:33:53.478Z,99942.75
2018-10-03T08:36:23.473Z,99955.81
2018-10-03T08:38:51.889Z,99958.44
2018-10-03T08:41:20.396Z,99970.03
2018-10-03T08:43:49.484Z,99971.77
2018-10-03T08:46:17.885Z,99971.33
2018-10-03T08:48:46.317Z,99966.23
2018-10-03T08:51:14.778Z,99971.64
2018-10-03T08:53:43.129Z,99978.76
2018-10-03T08:56:11.946Z,99978.20
2018-10-03T08:58:40.510Z,99981.34
2018-10-03T09:01:08.926Z,99984.31
2018-10-03T09:03:37.322Z,99983.55
2018-10-03T09:06:06.678Z,99979.91
2018-10-03T09:08:35.036Z,99986.84
2018-10-03T09:11:03.548Z,99983.52
2018-10-03T09:13:31.937Z,99982.17
2018-10-03T09:16:00.346Z,99982.03
2018-10-03T09:18:28.710Z,99981.73
2018-10-03T09:20:57.551Z,99975.45
2018-10-03T09:23:26.082Z,99977.47
2018-10-03T09:25:54.621Z,99972.68
2018-10-03T09:28:23.378Z,99967.27
2018-10-03T09:30:51.979Z,99965.00
2018-10-03T09:33:20.433Z,99962.89
2018-10-03T09:35:48.961Z,99962.67
2018-10-03T09:38:18.309Z,99958.57
2018-10-03T09:40:46.749Z,99952.42
2018-10-03T09:43:15.139Z,99952.95
2018-10-03T09:45:43.542Z,99937.95
2018-10-03T09:48:12.824Z,99966.03
2018-10-03T09:50:42.061Z,99959.47
2018-10-03T09:53:10.498Z,99967.95
2018-10-03T09:55:39.034Z,99962.77
2018-10-03T09:58:07.416Z,99967.28
2018-10-03T10:00:41.125Z,99981.77
2018-10-03T10:03:09.604Z,99982.25
2018-10-03T10:05:37.962Z,99977.05
2018-10-03T10:08:06.389Z,99976.15
2018-10-03T10:10:34.763Z,99980.24
2018-10-03T10:13:03.137Z,99985.50
2018-10-03T10:15:33.922Z,99984.90
2018-10-03T10:18:02.894Z,99988.01
2018-10-03T10:20:31.308Z,99987.81
2018-10-03T10:22:59.670Z,99986.55
2018-10-03T10:25:28.092Z,99989.94
2018-10-03T10:27:56.491Z,99991.35
2018-10-03T10:30:24.889Z,99991.03
2018-10-03T10:32:53.617Z,100000.13
2018-10-03T10:35:21.985Z,100003.48
2018-10-03T10:37:50.477Z,100006.98
2018-10-03T10:40:18.858Z,100011.91
2018-10-03T10:42:47.541Z,100013.50
2018-10-03T10:45:15.861Z,100024.61
2018-10-03T10:47:44.201Z,100010.70
2018-10-03T10:50:12.764Z,100013.97
2018-10-03T10:52:41.288Z,100019.53
2018-10-03T10:55:09.670Z,100020.13
2018-10-03T10:57:38.062Z,100024.57
2018-10-03T11:00:06.430Z,100017.50
2018-10-03T11:02:34.814Z,100019.38
2018-10-03T11:05:03.145Z,100010.41
2018-10-03T11:07:32.525Z,100011.29
2018-10-03T11:10:01.299Z,100012.15
2018-10-03T11:12:30.874Z,100014.09
2018-10-03T11:15:00.153Z,100006.86
2018-10-03T11:17:30.928Z,100002.35
2018-10-03T11:19:59.285Z,100012.50
2018-10-03T11:22:27.660Z,100007.98
2018-10-03T11:24:56.115Z,100013.45
2018-10-03T11:27:25.822Z,100012.31
2018-10-03T11:29:54.218Z,100014.21
2018-10-03T11:32:22.632Z,100008.72
2018-10-03T11:34:51.027Z,100001.83
2018-10-03T11:37:19.481Z,100007.66
2018-10-03T11:39:48.118Z,100003.39
2018-10-03T11:42:16.783Z,100009.19
2018-10-03T11:44:45.359Z,100007.30
2018-10-03T11:47:13.817Z,100012.99
2018-10-03T11:49:42.190Z,100008.88
2018-10-03T11:52:11.489Z,100005.67
2018-10-03T11:54:39.877Z,100001.80
2018-10-03T11:57:08.807Z,100000.62
2018-10-03T11:59:37.363Z,99996.77
2018-10-03T12:02:05.693Z,99996.59
2018-10-03T12:04:34.321Z,99992.87
2018-10-03T12:07:02.677Z,99991.94
2018-10-03T12:09:31.740Z,99996.35
2018-10-03T12:12:00.502Z,99991.57
2018-10-03T12:14:28.865Z,99987.37
2018-10-03T12:16:57.230Z,99983.70
2018-10-03T12:19:25.590Z,99983.71
2018-10-03T12:21:53.961Z,99984.41
2018-10-03T12:24:22.301Z,99988.25
2018-10-03T12:26:50.737Z,99993.99
2018-10-03T12:29:19.244Z,99983.50
2018-10-03T12:31:47.582Z,99984.22
2018-10-03T12:34:15.979Z,99989.06
2018-10-03T12:36:44.389Z,99984.11
2018-10-03T12:39:13.678Z,99987.90
2018-10-03T12:41:42.020Z,99983.07
2018-10-03T12:44:10.413Z,99987.09
2018-10-03T12:46:39.073Z,99987.75
2018-10-03T12:49:07.499Z,99983.73
2018-10-03T12:51:36.205Z,99986.26
2018-10-03T12:54:05.450Z,99979.17
2018-10-03T12:56:34.439Z,99974.88
2018-10-03T12:59:02.857Z,99977.28
2018-10-03T13:01:31.229Z,99970.77
2018-10-03T13:03:59.676Z,99967.07
2018-10-03T13:06:28.062Z,99973.42
2018-10-03T13:08:56.487Z,99973.81
2018-10-03T13:11:24.842Z,99972.08
2018-10-03T13:13:53.212Z,99966.24
2018-10-03T13:16:21.657Z,99979.05
2018-10-03T13:18:50.042Z,99984.98
2018-10-03T13:21:18.413Z,99981.87
2018-10-03T13:23:46.792Z,99974.05
2018-10-03T13:26:15.810Z,99969.41
2018-10-03T13:28:44.323Z,99976.41
2018-10-03T13:31:12.705Z,99937.80
2018-10-03T13:33:41.413Z,99946.33
2018-10-03T13:36:09.806Z,99969.06
2018-10-03T13:38:38.182Z,99968.59
2018-10-03T13:41:06.556Z,99963.18
2018-10-03T13:43:34.901Z,99965.30
2018-10-03T13:46:03.373Z,99969.49
2018-10-03T13:48:32.133Z,99974.87
2018-10-03T13:51:00.536Z,99969.73
2018-10-03T13:53:28.938Z,99981.68
2018-10-03T13:55:57.337Z,99981.86
2018-10-03T13:58:25.747Z,99967.70
2018-10-03T14:00:54.085Z,99970.58
2018-10-03T14:03:22.473Z,99969.70
2018-10-03T14:05:51.392Z,99969.08
2018-10-03T14:08:19.819Z,99972.13
2018-10-03T14:10:48.205Z,99966.06
2018-10-03T14:13:16.630Z,99967.51
2018-10-03T14:15:45.035Z,99977.38
2018-10-03T14:18:13.494Z,99974.98
2018-10-03T14:20:42.398Z,99977.69
2018-10-03T14:23:10.796Z,99974.53
2018-10-03T14:25:39.250Z,99976.06
2018-10-03T14:28:07.672Z,99971.53
2018-10-03T14:30:36.479Z,99974.22
2018-10-03T14:33:04.985Z,99973.27
2018-10-03T14:35:33.871Z,99974.02
2018-10-03T14:38:02.537Z,99972.86
2018-10-03T14:40:30.876Z,99972.81
2018-10-03T14:42:59.268Z,99980.27
2018-10-03T14:45:27.602Z,99975.81
2018-10-03T14:47:56.228Z,99977.27
2018-10-03T14:50:24.578Z,99977.73
2018-10-03T14:52:53.082Z,99979.41
2018-10-03T14:55:21.569Z,99986.03
2018-10-03T14:57:49.914Z,99988.23
2018-10-03T15:00:18.445Z,99981.36
2018-10-03T15:02:46.827Z,99982.29
2018-10-03T15:05:15.241Z,99988.50
2018-10-03T15:07:43.585Z,99984.34
2018-10-03T15:10:11.990Z,99982.36
2018-10-03T15:12:40.414Z,99986.30
2018-10-03T15:15:08.812Z,99984.73
2018-10-03T15:17:37.193Z,99985.14
2018-10-03T15:20:06.038Z,99980.83
2018-10-03T15:22:34.393Z,99988.58
2018-10-03T15:25:02.775Z,99985.53
2018-10-03T15:27:31.133Z,99991.10
2018-10-03T15:29:59.510Z,99992.11
2018-10-03T15:32:28.073Z,99985.31
2018-10-03T15:34:56.464Z,99988.60
2018-10-03T15:37:24.937Z,99993.45
2018-10-03T15:39:53.315Z,99998.06
2018-10-03T15:42:21.659Z,99996.67
2018-10-03T15:44:50.079Z,99994.81
2018-10-03T15:47:18.602Z,99996.16
2018-10-03T15:49:46.953Z,99997.45
2018-10-03T15:52:15.285Z,100000.75
2018-10-03T15:54:43.649Z,100001.58
2018-10-03T15:57:12.037Z,100001.90
2018-10-03T15:59:40.406Z,100004.81
2018-10-03T16:02:08.774Z,100003.34
2018-10-03T16:04:37.425Z,100007.84
2018-10-03T16:07:06.214Z,100011.09
2018-10-03T16:09:34.656Z,100011.81
2018-10-03T16:12:03.498Z,100018.58
2018-10-03T16:14:31.949Z,100017.33
2018-10-03T16:17:00.302Z,100021.48
2018-10-03T16:19:28.698Z,100024.88
2018-10-03T16:21:57.093Z,100031.58
2018-10-03T16:24:25.481Z,100033.11
2018-10-03T16:26:53.850Z,100038.95
2018-10-03T16:29:22.193Z,100041.23
2018-10-03T16:31:50.609Z,100043.67
2018-10-03T16:34:19.030Z,100047.22
2018-10-03T16:49:55.197Z,100049.10
2018-10-03T16:52:23.723Z,100061.34
2018-10-03T16:54:52.193Z,100058.86
2018-10-03T16:57:20.639Z,100060.16
2018-10-03T16:59:49.132Z,100059.11
2018-10-03T17:02:17.645Z,100059.61
2018-10-03T17:04:46.113Z,100058.38
2018-10-03T17:07:14.582Z,100062.73
2018-10-03T17:09:43.683Z,100070.14
2018-10-03T17:12:14.372Z,100070.48
2018-10-03T17:14:42.878Z,100068.47
2018-10-03T17:17:11.619Z,100076.66
2018-10-03T17:19:40.532Z,100075.55
2018-10-03T17:22:09.958Z,100081.16
2018-10-03T17:24:39.031Z,100087.03
2018-10-03T17:27:07.519Z,100075.83
2018-10-03T17:29:35.942Z,100087.10
2018-10-03T17:32:04.552Z,100086.83
2018-10-03T17:34:33.041Z,100089.31
2018-10-03T17:37:01.565Z,100097.05
2018-10-03T17:39:30.116Z,100094.67
2018-10-03T17:41:58.764Z,100100.08
2018-10-03T17:44:27.271Z,100096.34
2018-10-03T17:46:59.109Z,100111.63
2018-10-03T17:49:27.636Z,100111.70
2018-10-03T17:51:56.157Z,100114.74
2018-10-03T17:54:24.668Z,100116.92
2018-10-03T17:56:53.184Z,100117.28
2018-10-03T17:59:21.685Z,100120.06
2018-10-03T18:01:52.143Z,100124.08
2018-10-03T18:04:20.652Z,100120.44
2018-10-03T18:06:49.130Z,100123.21
2018-10-03T18:09:17.650Z,100124.20
2018-10-03T18:11:46.151Z,100131.10
2018-10-03T18:14:15.912Z,100136.06
2018-10-03T18:16:46.259Z,100134.72
2018-10-03T18:19:14.716Z,100144.71
2018-10-03T18:21:43.244Z,100148.75
2018-10-03T18:24:11.750Z,100148.39
2018-10-03T18:26:40.273Z,100147.06
2018-10-03T18:29:08.766Z,100154.31
2018-10-03T18:31:38.134Z,100158.16
2018-10-03T18:34:06.636Z,100164.80
2018-10-03T18:36:35.205Z,100168.58
2018-10-03T18:39:05.531Z,100166.95
2018-10-03T18:41:34.081Z,100176.20
2018-10-03T18:44:02.533Z,100187.44
2018-10-03T18:46:31.015Z,100186.88
2018-10-03T18:48:59.502Z,100189.59
2018-10-03T18:51:28.012Z,100186.83
2018-10-03T18:53:56.481Z,100191.54
2018-10-03T18:56:24.940Z,100193.97
2018-10-03T18:58:53.538Z,100192.14
2018-10-03T19:01:22.108Z,100204.51
2018-10-03T19:03:50.587Z,100201.85
2018-10-03T19:06:20.000Z,100204.75
2018-10-03T19:08:48.501Z,100203.20
2018-10-03T19:11:17.047Z,100203.91
2018-10-03T19:13:45.708Z,100203.59
2018-10-03T19:16:16.396Z,100198.85
2018-10-03T19:18:44.824Z,100170.28
2018-10-03T19:21:14.055Z,100207.37
2018-10-03T19:23:42.584Z,100207.16
2018-10-03T19:26:11.351Z,100205.44
2018-10-03T19:28:39.810Z,100200.52
2018-10-03T19:31:08.504Z,100200.98
2018-10-03T19:33:37.087Z,100213.34
2018-10-03T19:36:05.935Z,100220.70
2018-10-03T19:38:34.932Z,100214.83
2018-10-03T19:41:03.421Z,100218.70
2018-10-03T19:43:31.971Z,100220.02
2018-10-03T19:46:00.437Z,100227.19
2018-10-03T19:48:29.108Z,100227.88
2018-10-03T19:50:57.572Z,100221.42
2018-10-03T19:53:31.435Z,100226.91
2018-10-03T19:56:00.500Z,100224.22
2018-10-03T19:58:29.017Z,100237.04
2018-10-03T20:00:57.764Z,100231.10
2018-10-03T20:03:26.476Z,100230.34
2018-10-03T20:05:57.900Z,100237.92
2018-10-03T20:08:26.375Z,100239.80
2018-10-03T20:10:54.837Z,100238.48
2018-10-03T20:13:23.309Z,100242.91
2018-10-03T20:15:53.381Z,100236.72
2018-10-03T20:18:23.072Z,100236.15
2018-10-03T20:20:52.708Z,100237.60
2018-10-03T20:23:22.096Z,100234.09
2018-10-03T20:25:50.664Z,100237.89
2018-10-03T20:28:19.172Z,100236.73
2018-10-03T20:30:47.973Z,100234.92
2018-10-03T20:33:16.415Z,100238.70
2018-10-03T20:35:44.902Z,100236.38
2018-10-03T20:38:13.726Z,100236.97
2018-10-03T20:40:43.144Z,100237.25
2018-10-03T20:43:11.799Z,100237.78
2018-10-03T20:45:40.429Z,100239.33
2018-10-03T20:48:10.166Z,100238.97
2018-10-03T20:50:38.780Z,100238.23
2018-10-03T20:53:07.913Z,100233.02
2018-10-03T20:55:36.724Z,100232.75
2018-10-03T20:58:05.417Z,100227.48
2018-10-03T21:00:34.051Z,100226.64
2018-10-03T21:03:03.634Z,100225.12
2018-10-03T21:05:32.237Z,100228.25
2018-10-03T21:08:00.924Z,100224.83
2018-10-03T21:10:29.672Z,100225.02
2018-10-03T21:12:58.331Z,100230.41
2018-10-03T21:15:27.024Z,100227.84
2018-10-03T21:17:56.297Z,100225.97
2018-10-03T21:20:24.835Z,100225.22
2018-10-03T21:22:53.630Z,100221.56
2018-10-03T21:25:23.686Z,100223.25
2018-10-03T21:27:52.525Z,100222.39
2018-10-03T21:30:21.557Z,100233.00
2018-10-03T21:32:50.085Z,100233.22
2018-10-03T21:35:18.564Z,100243.34
2018-10-03T21:37:47.117Z,100244.84
2018-10-03T21:40:15.600Z,100241.74
2018-10-03T21:42:44.009Z,100250.16
2018-10-03T21:45:12.601Z,100237.52
2018-10-03T21:47:41.063Z,100243.55
2018-10-03T21:50:09.600Z,100233.04
2018-10-03T21:52:38.122Z,100237.03
2018-10-03T21:55:07.297Z,100238.72
2018-10-03T21:57:35.730Z,100245.16
2018-10-03T22:00:04.488Z,100236.56
2018-10-03T22:02:32.960Z,100231.92
2018-10-03T22:05:01.489Z,100230.77
2018-10-03T22:07:29.968Z,100228.80
2018-10-03T22:09:58.471Z,100231.74
2018-10-03T22:12:27.163Z,100228.23
2018-10-03T22:14:55.725Z,100220.50
2018-10-03T22:17:25.235Z,100218.41
2018-10-03T22:19:56.037Z,100215.50
2018-10-03T22:22:24.505Z,100220.41
2018-10-03T22:24:53.008Z,100220.00
2018-10-03T22:27:21.462Z,100222.85
2018-10-03T22:29:49.958Z,100220.19
2018-10-03T22:32:18.463Z,100223.05
2018-10-03T22:34:47.006Z,100230.22
2018-10-03T22:37:16.251Z,100229.27
2018-10-03T22:39:45.231Z,100237.78
2018-10-03T22:42:13.751Z,100235.77
2018-10-03T22:44:42.373Z,100237.95
2018-10-03T22:47:10.863Z,100234.44
2018-10-03T22:49:39.411Z,100238.19
2018-10-03T22:52:08.129Z,100241.29
2018-10-03T22:54:36.644Z,100237.54
2018-10-03T22:57:05.143Z,100238.69
2018-10-03T22:59:33.663Z,100236.05
2018-10-03T23:02:02.133Z,100243.57
2018-10-03T23:04:30.819Z,100246.42
2018-10-03T23:06:59.375Z,100246.78
2018-10-03T23:09:27.919Z,100245.16
2018-10-03T23:11:56.372Z,100245.24
2018-10-03T23:14:24.939Z,100248.89
2018-10-03T23:16:54.919Z,100250.13
2018-10-03T23:19:23.735Z,100242.44
2018-10-03T23:21:52.183Z,100250.22
2018-10-03T23:24:20.683Z,100252.92
2018-10-03T23:26:49.225Z,100245.08
2018-10-03T23:29:17.723Z,100243.30
2018-10-03T23:31:46.210Z,100255.06
2018-10-03T23:34:14.719Z,100255.92
2018-10-03T23:36:43.679Z,100250.89
2018-10-03T23:39:12.879Z,100264.41
2018-10-03T23:41:41.618Z,100268.89
2018-10-03T23:44:10.524Z,100261.42
2018-10-03T23:46:40.036Z,100255.17
2018-10-03T23:49:10.261Z,100257.70
2018-10-03T23:51:38.836Z,100257.59
2018-10-03T23:54:07.320Z,100259.96
2018-10-03T23:56:36.711Z,100267.11
2018-10-03T23:59:05.196Z,100270.27
